createdAt,value
2018-10-21T00:01:25.790Z,18.23
2018-10-21T00:03:54.043Z,16.37
2018-10-21T00:06:22.211Z,18.50
2018-10-21T00:08:50.406Z,14.63
2018-10-21T00:11:18.670Z,15.17
2018-10-21T00:13:46.852Z,13.50
2018-10-21T00:16:15.078Z,14.93
2018-10-21T00:18:43.277Z,16.07
2018-10-21T00:21:11.551Z,14.13
2018-10-21T00:23:39.745Z,17.13
2018-10-21T00:26:07.936Z,15.47
2018-10-21T00:28:36.161Z,13.43
2018-10-21T00:31:04.419Z,11.27
2018-10-21T00:33:32.628Z,15.77
2018-10-21T00:36:00.828Z,14.37
2018-10-21T00:38:29.036Z,12.70
2018-10-21T00:40:57.268Z,21.27
2018-10-21T00:43:25.518Z,17.07
2018-10-21T00:45:53.723Z,16.77
2018-10-21T00:48:22.416Z,19.23
2018-10-21T00:50:50.639Z,13.70
2018-10-21T00:53:18.858Z,12.70
2018-10-21T00:55:47.089Z,14.10
2018-10-21T00:58:15.371Z,14.47
2018-10-21T01:00:43.644Z,16.87
2018-10-21T01:03:11.873Z,15.27
2018-10-21T01:05:40.094Z,20.50
2018-10-21T01:08:08.278Z,20.87
2018-10-21T01:10:36.494Z,22.90
2018-10-21T01:13:04.775Z,20.47
2018-10-21T01:15:32.969Z,20.77
2018-10-21T01:18:01.192Z,16.40
2018-10-21T01:20:29.370Z,19.90
2018-10-21T01:22:57.597Z,15.87
2018-10-21T01:25:25.825Z,21.27
2018-10-21T01:27:54.077Z,16.87
2018-10-21T01:30:22.272Z,15.37
2018-10-21T01:32:50.495Z,23.30
2018-10-21T01:35:18.699Z,22.83
2018-10-21T01:37:46.979Z,15.20
2018-10-21T01:40:32.098Z,17.97
2018-10-21T01:43:00.639Z,18.67
2018-10-21T01:45:28.874Z,16.30
2018-10-21T01:47:59.245Z,22.57
2018-10-21T01:50:27.480Z,13.73
2018-10-21T01:52:57.057Z,17.30
2018-10-21T01:55:25.661Z,14.50
2018-10-21T01:57:54.391Z,19.33
2018-10-21T02:00:22.980Z,17.00
2018-10-21T02:02:51.164Z,15.40
2018-10-21T02:05:19.413Z,15.37
2018-10-21T02:07:47.667Z,12.63
2018-10-21T02:10:15.879Z,13.50
2018-10-21T02:12:44.171Z,14.47
2018-10-21T02:15:13.134Z,14.07
2018-10-21T02:17:41.465Z,15.77
2018-10-21T02:20:10.811Z,15.13
2018-10-21T02:22:39.531Z,15.30
2018-10-21T02:25:08.094Z,19.47
2018-10-21T02:27:36.880Z,13.77
2018-10-21T02:30:08.026Z,15.17
2018-10-21T02:32:36.352Z,13.90
2018-10-21T02:35:05.577Z,18.43
2018-10-21T02:37:33.779Z,20.60
2018-10-21T02:40:02.046Z,17.40
2018-10-21T02:42:30.304Z,16.10
2018-10-21T02:44:58.578Z,17.37
2018-10-21T02:47:26.753Z,18.27
2018-10-21T02:49:54.960Z,19.73
2018-10-21T02:52:23.208Z,20.13
2018-10-21T02:54:51.396Z,16.70
2018-10-21T02:57:19.630Z,19.33
2018-10-21T02:59:47.852Z,16.37
2018-10-21T03:02:16.057Z,19.33
2018-10-21T03:04:44.267Z,18.27
2018-10-21T03:07:12.459Z,17.17
2018-10-21T03:09:40.630Z,15.93
2018-10-21T03:12:08.818Z,16.27
2018-10-21T03:14:37.052Z,16.47
2018-10-21T03:17:05.255Z,13.40
2018-10-21T03:19:33.455Z,14.50
2018-10-21T03:22:01.681Z,16.43
2018-10-21T03:24:29.870Z,17.23
2018-10-21T03:26:58.124Z,14.50
2018-10-21T03:29:26.275Z,15.43
2018-10-21T03:31:54.484Z,14.17
2018-10-21T03:34:22.714Z,14.80
2018-10-21T03:36:50.959Z,14.23
2018-10-21T03:39:19.212Z,13.17
2018-10-21T03:41:47.421Z,13.63
2018-10-21T03:44:15.671Z,14.03
2018-10-21T03:46:43.891Z,12.43
2018-10-21T03:49:12.078Z,14.20
2018-10-21T03:51:40.308Z,15.47
2018-10-21T03:54:08.530Z,13.33
2018-10-21T03:56:36.810Z,13.63
2018-10-21T03:59:05.217Z,14.10
2018-10-21T04:01:33.423Z,12.90
2018-10-21T04:04:01.665Z,15.83
2018-10-21T04:06:29.881Z,12.43
2018-10-21T04:08:58.102Z,19.30
2018-10-21T04:11:26.354Z,14.67
2018-10-21T04:13:54.592Z,16.30
2018-10-21T04:16:22.794Z,15.33
2018-10-21T04:18:51.132Z,17.77
2018-10-21T04:21:19.314Z,15.70
2018-10-21T04:23:47.492Z,15.43
2018-10-21T04:26:15.766Z,15.00
2018-10-21T04:28:43.991Z,13.17
2018-10-21T04:31:12.226Z,16.00
2018-10-21T04:33:40.535Z,13.53
2018-10-21T04:36:10.284Z,14.93
2018-10-21T04:38:49.797Z,11.13
2018-10-21T04:41:17.977Z,14.57
2018-10-21T04:43:46.215Z,15.13
2018-10-21T04:46:14.439Z,11.43
2018-10-21T04:48:42.601Z,13.80
2018-10-21T04:51:10.828Z,13.47
2018-10-21T04:53:39.103Z,17.83
2018-10-21T04:56:07.402Z,15.30
2018-10-21T04:58:35.644Z,13.37
2018-10-21T05:01:03.835Z,13.00
2018-10-21T05:03:32.072Z,14.77
2018-10-21T05:06:00.308Z,14.97
2018-10-21T05:08:28.529Z,15.57
2018-10-21T05:10:56.748Z,16.63
2018-10-21T05:39:54.731Z,17.50
2018-10-21T05:42:23.783Z,15.23
2018-10-21T05:46:09.010Z,16.83
2018-10-21T05:48:54.256Z,15.93
2018-10-21T05:51:24.477Z,15.53
2018-10-21T06:07:02.461Z,15.27
2018-10-21T06:09:31.628Z,18.17
2018-10-21T06:12:00.586Z,16.33
2018-10-21T06:15:01.433Z,15.33
2018-10-21T06:20:24.603Z,17.87
2018-10-21T06:22:54.244Z,17.13
2018-10-21T06:25:44.214Z,17.53
2018-10-21T06:28:32.576Z,15.63
2018-10-21T06:31:01.336Z,18.30
2018-10-21T06:33:30.146Z,15.27
2018-10-21T06:36:00.782Z,17.00
2018-10-21T06:38:29.718Z,18.97
2018-10-21T06:40:58.671Z,15.37
2018-10-21T06:52:06.892Z,15.33
2018-10-21T06:54:38.056Z,16.07
2018-10-21T06:57:07.712Z,13.37
2018-10-21T06:59:36.267Z,17.93
2018-10-21T07:02:05.481Z,15.40
2018-10-21T07:04:33.996Z,15.63
2018-10-21T07:07:02.930Z,16.47
2018-10-21T07:09:32.133Z,16.03
2018-10-21T07:12:00.818Z,18.63
2018-10-21T07:14:29.860Z,15.67
2018-10-21T07:17:03.844Z,17.70
2018-10-21T07:19:32.790Z,15.83
2018-10-21T07:22:01.850Z,16.50
2018-10-21T07:24:30.519Z,15.73
2018-10-21T07:26:59.741Z,14.63
2018-10-21T07:29:34.343Z,14.17
2018-10-21T07:32:03.014Z,15.00
2018-10-21T07:34:32.131Z,13.17
2018-10-21T07:37:01.362Z,14.67
2018-10-21T07:39:30.120Z,12.67
2018-10-21T07:42:07.165Z,15.80
2018-10-21T07:44:51.526Z,13.03
2018-10-21T07:47:20.430Z,16.57
2018-10-21T07:49:49.954Z,15.70
2018-10-21T07:52:20.237Z,16.37
2018-10-21T07:54:54.780Z,14.63
2018-10-21T07:57:24.066Z,12.37
2018-10-21T08:02:59.133Z,15.10
2018-10-21T08:11:00.357Z,14.30
2018-10-21T08:13:28.846Z,13.77
2018-10-21T08:15:57.488Z,15.00
2018-10-21T08:18:26.236Z,14.13
2018-10-21T08:20:54.780Z,14.83
2018-10-21T08:23:23.439Z,13.83
2018-10-21T08:25:52.164Z,11.13
2018-10-21T08:28:20.685Z,10.17
2018-10-21T08:30:49.291Z,10.23
2018-10-21T08:33:17.837Z,10.33
2018-10-21T08:35:46.514Z,11.97
2018-10-21T08:38:15.005Z,10.93
2018-10-21T08:40:43.626Z,11.03
2018-10-21T08:43:12.313Z,9.43
2018-10-21T08:45:41.912Z,11.37
2018-10-21T08:48:11.362Z,9.90
2018-10-21T08:50:39.945Z,10.53
2018-10-21T08:53:08.486Z,9.43
2018-10-21T08:55:37.380Z,10.13
2018-10-21T08:58:05.967Z,8.20
2018-10-21T09:00:34.547Z,11.50
2018-10-21T09:03:03.133Z,9.37
2018-10-21T09:05:34.260Z,10.13
2018-10-21T09:08:02.623Z,11.60
2018-10-21T09:10:31.292Z,9.43
2018-10-21T09:12:59.958Z,11.17
2018-10-21T09:15:28.839Z,12.97
2018-10-21T09:17:57.237Z,12.07
2018-10-21T09:20:41.221Z,13.13
2018-10-21T09:23:10.092Z,12.57
2018-10-21T09:25:38.708Z,11.63
2018-10-21T09:28:07.489Z,10.10
2018-10-21T09:30:36.396Z,10.97
2018-10-21T09:33:04.899Z,12.30
2018-10-21T09:35:33.641Z,9.03
2018-10-21T09:38:09.845Z,14.67
2018-10-21T09:40:38.409Z,10.80
2018-10-21T09:43:07.406Z,16.23
2018-10-21T09:45:36.038Z,15.60
2018-10-21T09:48:04.921Z,10.40
2018-10-21T09:50:40.925Z,9.80
2018-10-21T09:53:09.406Z,12.50
2018-10-21T09:55:38.094Z,12.03
2018-10-21T09:58:06.747Z,13.50
2018-10-21T10:00:40.399Z,11.80
2018-10-21T10:03:12.361Z,10.17
2018-10-21T10:05:40.965Z,10.83
2018-10-21T10:08:09.441Z,12.87
2018-10-21T10:10:38.032Z,17.00
2018-10-21T10:13:08.518Z,12.37
2018-10-21T10:15:36.998Z,12.67
2018-10-21T10:18:06.905Z,13.80
2018-10-21T10:20:35.503Z,12.50
2018-10-21T10:23:06.189Z,10.47
2018-10-21T10:25:34.677Z,11.10
2018-10-21T10:28:03.315Z,14.73
2018-10-21T10:30:31.975Z,9.63
2018-10-21T10:33:00.702Z,10.33
2018-10-21T10:35:29.204Z,12.40
2018-10-21T10:37:57.690Z,11.08
2018-10-21T10:40:26.244Z,11.03
2018-10-21T10:42:54.720Z,11.10
2018-10-21T10:45:23.137Z,13.53
2018-10-21T10:47:51.541Z,10.65
2018-10-21T10:50:20.144Z,11.30
2018-10-21T10:52:48.651Z,10.25
2018-10-21T10:55:17.743Z,13.58
2018-10-21T10:57:46.154Z,9.93
2018-10-21T11:00:14.695Z,12.20
2018-10-21T11:02:43.023Z,12.00
2018-10-21T11:05:11.585Z,10.78
2018-10-21T11:07:46.608Z,12.28
2018-10-21T11:10:15.003Z,12.28
2018-10-21T11:12:43.395Z,10.13
2018-10-21T11:15:11.778Z,17.02
2018-10-21T11:17:40.063Z,15.25
2018-10-21T11:20:08.328Z,10.13
2018-10-21T11:22:36.686Z,11.22
2018-10-21T11:25:07.018Z,9.93
2018-10-21T11:27:35.319Z,8.10
2018-10-21T11:30:03.536Z,9.75
2018-10-21T11:32:31.846Z,7.47
2018-10-21T11:35:00.160Z,12.95
2018-10-21T11:37:28.545Z,10.95
2018-10-21T11:39:56.674Z,10.50
2018-10-21T11:42:24.880Z,9.80
2018-10-21T11:44:53.094Z,8.55
2018-10-21T11:47:21.255Z,9.10
2018-10-21T11:49:49.500Z,9.20
2018-10-21T11:52:17.821Z,10.93
2018-10-21T11:54:45.925Z,7.42
2018-10-21T11:57:14.099Z,10.80
2018-10-21T11:59:42.317Z,8.88
2018-10-21T12:02:10.528Z,11.10
2018-10-21T12:04:38.719Z,7.58
2018-10-21T12:07:06.957Z,8.75
2018-10-21T12:09:35.163Z,10.65
2018-10-21T12:12:03.353Z,8.75
2018-10-21T12:14:31.565Z,10.32
2018-10-21T12:16:59.782Z,6.65
2018-10-21T12:19:27.967Z,9.03
2018-10-21T12:21:56.217Z,8.15
2018-10-21T12:24:24.442Z,5.28
2018-10-21T12:26:52.698Z,6.08
2018-10-21T12:29:21.111Z,7.33
2018-10-21T12:31:49.187Z,10.30
2018-10-21T12:34:17.403Z,7.65
2018-10-21T12:36:45.619Z,5.65
2018-10-21T12:39:13.836Z,5.33
2018-10-21T12:41:42.708Z,4.30
2018-10-21T12:44:10.931Z,6.55
2018-10-21T12:46:39.580Z,6.67
2018-10-21T12:49:08.063Z,5.40
2018-10-21T12:51:36.221Z,5.12
2018-10-21T12:54:04.756Z,8.20
2018-10-21T12:56:32.931Z,7.00
2018-10-21T12:59:01.165Z,7.80
2018-10-21T13:01:29.395Z,6.40
2018-10-21T13:03:57.627Z,6.90
2018-10-21T13:06:25.856Z,8.18
2018-10-21T13:08:54.141Z,6.72
2018-10-21T13:11:22.543Z,6.58
2018-10-21T13:13:50.746Z,7.30
2018-10-21T13:16:18.930Z,7.17
2018-10-21T13:18:47.129Z,5.00
2018-10-21T13:21:15.323Z,7.08
2018-10-21T13:23:43.554Z,5.62
2018-10-21T13:26:11.777Z,5.55
2018-10-21T13:28:40.001Z,6.08
2018-10-21T13:31:08.193Z,4.67
2018-10-21T13:33:36.397Z,7.10
2018-10-21T13:36:05.059Z,4.67
2018-10-21T13:38:33.385Z,9.45
2018-10-21T13:41:01.746Z,4.60
2018-10-21T13:43:29.930Z,5.15
2018-10-21T13:45:58.293Z,2.95
2018-10-21T13:48:26.519Z,4.03
2018-10-21T13:50:54.700Z,5.17
2018-10-21T13:53:22.950Z,4.25
2018-10-21T13:55:51.122Z,5.72
2018-10-21T13:58:19.344Z,5.20
2018-10-21T14:00:47.667Z,2.60
2018-10-21T14:03:15.833Z,4.53
2018-10-21T14:05:44.027Z,4.25
2018-10-21T14:08:12.225Z,6.75
2018-10-21T14:10:40.454Z,4.28
2018-10-21T14:13:08.721Z,5.08
2018-10-21T14:15:36.895Z,3.58
2018-10-21T14:18:05.165Z,4.65
2018-10-21T14:20:33.372Z,6.20
2018-10-21T14:23:01.572Z,5.47
2018-10-21T14:25:29.784Z,4.40
2018-10-21T14:27:58.003Z,11.30
2018-10-21T14:30:26.240Z,7.33
2018-10-21T14:32:54.477Z,7.85
2018-10-21T14:35:22.678Z,6.42
2018-10-21T14:37:50.955Z,5.00
2018-10-21T14:40:19.183Z,5.25
2018-10-21T14:42:47.358Z,4.37
2018-10-21T14:45:15.679Z,3.87
2018-10-21T14:47:43.840Z,3.20
2018-10-21T14:50:12.650Z,3.27
2018-10-21T14:52:40.847Z,3.30
2018-10-21T14:55:10.033Z,6.57
2018-10-21T14:57:38.597Z,4.23
2018-10-21T15:00:08.569Z,9.40
2018-10-21T15:02:36.694Z,4.00
2018-10-21T15:05:07.187Z,5.47
2018-10-21T15:07:35.361Z,4.13
2018-10-21T15:10:03.929Z,5.53
2018-10-21T15:12:32.087Z,4.57
2018-10-21T15:15:00.258Z,5.47
2018-10-21T15:17:28.488Z,6.97
2018-10-21T15:19:56.690Z,7.87
2018-10-21T15:22:24.901Z,4.17
2018-10-21T15:24:53.094Z,3.63
2018-10-21T15:27:21.310Z,4.57
2018-10-21T15:29:49.667Z,3.93
2018-10-21T15:32:17.953Z,3.00
2018-10-21T15:34:46.226Z,5.97
2018-10-21T15:37:14.412Z,3.70
2018-10-21T15:39:42.702Z,5.47
2018-10-21T15:42:10.819Z,5.00
2018-10-21T15:44:39.029Z,4.27
2018-10-21T15:47:07.261Z,2.87
2018-10-21T15:49:35.445Z,2.47
2018-10-21T15:52:03.643Z,5.10
2018-10-21T15:54:32.559Z,7.57
2018-10-21T15:57:00.759Z,14.03
2018-10-21T15:59:29.181Z,4.80
2018-10-21T16:01:57.417Z,2.30
2018-10-21T16:04:25.585Z,4.43
2018-10-21T16:06:53.819Z,5.20
2018-10-21T16:09:22.019Z,4.33
2018-10-21T16:11:50.264Z,3.93
2018-10-21T16:14:18.537Z,4.83
2018-10-21T16:16:46.717Z,5.07
2018-10-21T16:19:14.980Z,3.77
2018-10-21T16:21:43.254Z,5.43
2018-10-21T16:24:11.519Z,7.00
2018-10-21T16:26:39.787Z,4.13
2018-10-21T16:29:08.142Z,8.27
2018-10-21T16:31:36.374Z,6.30
2018-10-21T16:34:04.909Z,7.63
2018-10-21T16:36:33.121Z,7.40
2018-10-21T16:39:01.327Z,7.43
2018-10-21T16:41:32.645Z,8.33
2018-10-21T16:44:00.827Z,7.23
2018-10-21T16:46:29.088Z,6.23
2018-10-21T16:48:57.384Z,11.47
2018-10-21T16:51:25.748Z,7.93
2018-10-21T16:53:53.989Z,7.53
2018-10-21T16:56:22.148Z,6.73
2018-10-21T16:58:50.359Z,6.97
2018-10-21T17:01:18.575Z,8.40
2018-10-21T17:03:46.817Z,8.90
2018-10-21T17:06:15.128Z,10.03
2018-10-21T17:08:43.309Z,9.60
2018-10-21T17:11:11.627Z,15.57
2018-10-21T17:13:39.675Z,23.40
2018-10-21T17:16:08.149Z,26.77
2018-10-21T17:18:36.512Z,29.97
2018-10-21T17:21:05.045Z,28.93
2018-10-21T17:23:33.349Z,25.13
2018-10-21T17:26:01.590Z,27.37
2018-10-21T17:28:29.807Z,32.57
2018-10-21T17:30:58.116Z,28.50
2018-10-21T17:33:26.391Z,26.13
2018-10-21T17:35:56.745Z,28.37
2018-10-21T17:38:24.943Z,21.70
2018-10-21T17:40:53.137Z,18.20
2018-10-21T17:43:21.395Z,16.97
2018-10-21T17:45:49.602Z,23.37
2018-10-21T17:48:17.837Z,15.80
2018-10-21T17:50:46.109Z,15.63
2018-10-21T17:53:14.556Z,13.07
2018-10-21T17:55:42.827Z,14.30
2018-10-21T17:58:11.293Z,14.73
2018-10-21T18:00:39.611Z,12.67
2018-10-21T18:03:07.796Z,9.70
2018-10-21T18:05:36.045Z,8.57
2018-10-21T18:08:04.295Z,11.77
2018-10-21T18:10:32.577Z,7.80
2018-10-21T18:13:00.845Z,6.97
2018-10-21T18:15:29.092Z,7.67
2018-10-21T18:17:57.457Z,7.10
2018-10-21T18:20:25.861Z,9.27
2018-10-21T18:22:54.125Z,5.80
2018-10-21T18:25:22.344Z,6.90
2018-10-21T18:27:50.647Z,7.13
2018-10-21T18:30:18.841Z,9.53
2018-10-21T18:32:47.133Z,14.53
2018-10-21T18:35:16.117Z,13.87
2018-10-21T18:37:44.361Z,10.07
2018-10-21T18:40:12.984Z,9.07
2018-10-21T18:42:41.608Z,9.10
2018-10-21T18:45:11.641Z,23.80
2018-10-21T18:47:39.909Z,17.83
2018-10-21T18:50:10.108Z,12.20
2018-10-21T18:52:38.376Z,9.20
2018-10-21T18:55:07.236Z,6.47
2018-10-21T18:57:35.467Z,6.70
2018-10-21T19:00:03.797Z,8.93
2018-10-21T19:02:32.071Z,9.90
2018-10-21T19:05:00.423Z,7.87
2018-10-21T19:07:28.788Z,10.43
2018-10-21T19:09:57.091Z,6.83
2018-10-21T19:12:25.463Z,11.90
2018-10-21T19:14:54.762Z,6.87
2018-10-21T19:17:23.079Z,8.90
2018-10-21T19:19:51.473Z,12.07
2018-10-21T19:22:19.708Z,7.17
2018-10-21T19:24:47.961Z,8.33
2018-10-21T19:27:16.178Z,8.80
2018-10-21T19:29:44.436Z,8.83
2018-10-21T19:32:12.717Z,9.70
2018-10-21T19:34:41.060Z,10.73
2018-10-21T19:37:09.263Z,9.77
2018-10-21T19:39:37.580Z,6.33
2018-10-21T19:42:05.814Z,12.20
2018-10-21T19:44:34.205Z,9.17
2018-10-21T19:47:02.553Z,7.80
2018-10-21T19:49:30.747Z,8.70
2018-10-21T19:51:59.119Z,12.97
2018-10-21T19:54:27.373Z,8.53
2018-10-21T19:56:55.702Z,11.27
2018-10-21T19:59:23.919Z,17.50
2018-10-21T20:01:52.248Z,14.53
2018-10-21T20:36:37.810Z,10.13
2018-10-21T20:39:39.208Z,9.10
2018-10-21T21:23:42.981Z,9.40
2018-10-21T21:32:34.876Z,8.07
2018-10-21T21:40:57.465Z,9.50
2018-10-21T21:55:02.888Z,8.87
